Time;durP1;ratioP1;P1;durP2;ratioP2;P2;SDS_P1;SDS_P2;PMS_P1;PMS_P2;Temp;Humidity;BMP_temperature;BMP_pressure;BME280_temperature;BME280_humidity;BME280_pressure;Samples;Min_cycle;Max_cycle;Signal;HPM_P1;HPM_P2
2021/04/29 00:00:13;;;;;;;13.40;8.80;;;;;;;7.41;62.31;99745.28;4967258;28;20039;-80
2021/04/29 00:02:39;;;;;;;13.17;8.77;;;;;;;7.46;62.00;99741.63;4936992;29;20042;-80
2021/04/29 00:05:11;;;;;;;13.07;9.27;;;;;;;7.35;62.63;99738.38;4969229;28;20113;-79
2021/04/29 00:07:37;;;;;;;14.67;9.47;;;;;;;7.43;61.75;99739.09;4953602;29;20051;-81
2021/04/29 00:10:06;;;;;;;11.00;9.67;;;;;;;7.39;61.75;99736.56;4953740;28;20043;-80
2021/04/29 00:12:32;;;;;;;13.50;9.10;;;;;;;7.31;63.17;99739.34;4948158;29;20036;-78
2021/04/29 00:14:58;;;;;;;13.60;8.90;;;;;;;7.29;63.00;99736.75;4953656;28;20050;-79
2021/04/29 00:17:24;;;;;;;14.33;9.10;;;;;;;7.24;62.66;99741.25;4955175;28;20054;-79
2021/04/29 00:19:51;;;;;;;13.37;9.70;;;;;;;7.22;62.56;99740.41;4953411;28;20078;-78
2021/04/29 00:22:17;;;;;;;13.57;9.53;;;;;;;7.25;62.06;99737.72;4952616;28;20090;-81
2021/04/29 00:24:43;;;;;;;15.47;10.03;;;;;;;7.35;61.25;99733.13;4934518;29;20043;-79
2021/04/29 00:27:09;;;;;;;15.63;9.80;;;;;;;7.33;62.48;99745.44;4953326;28;20039;-82
2021/04/29 00:29:35;;;;;;;10.73;8.60;;;;;;;7.32;63.16;99744.59;4936612;29;20039;-80
2021/04/29 00:32:02;;;;;;;13.20;9.53;;;;;;;7.29;62.90;99738.53;4952024;28;20052;-79
2021/04/29 00:34:28;;;;;;;13.57;9.83;;;;;;;7.26;63.07;99747.34;4953321;28;20047;-81
2021/04/29 00:36:55;;;;;;;19.33;9.27;;;;;;;7.26;62.50;99741.22;4950327;28;20046;-81
2021/04/29 00:39:23;;;;;;;17.33;10.30;;;;;;;7.21;63.36;99738.69;4949811;29;20584;-81
2021/04/29 00:41:50;;;;;;;14.73;10.33;;;;;;;7.10;63.47;99737.19;4935739;28;20039;-82
2021/04/29 00:44:17;;;;;;;14.70;9.87;;;;;;;7.09;64.03;99731.06;4936394;29;20079;-80
2021/04/29 00:46:46;;;;;;;11.13;8.90;;;;;;;6.99;63.65;99726.91;4951775;28;20547;-81
2021/04/29 00:49:14;;;;;;;15.77;9.00;;;;;;;6.92;64.43;99728.81;4951668;28;20397;-80
2021/04/29 00:51:40;;;;;;;14.17;10.33;;;;;;;6.92;64.15;99717.44;4920548;29;20039;-82
2021/04/29 00:54:06;;;;;;;15.57;10.17;;;;;;;6.85;64.21;99721.09;4952418;29;20073;-82
2021/04/29 00:56:32;;;;;;;13.23;9.17;;;;;;;6.73;64.80;99730.94;4950531;28;20050;-80
2021/04/29 00:59:02;;;;;;;12.77;9.60;;;;;;;6.75;64.83;99726.50;4967381;28;20053;-82
2021/04/29 01:01:33;;;;;;;17.57;10.50;;;;;;;6.78;65.03;99725.56;4950892;29;20117;-80
2021/04/29 01:04:07;;;;;;;15.50;9.93;;;;;;;6.76;65.03;99719.50;4946358;29;20067;-81
2021/04/29 01:06:38;;;;;;;12.83;10.03;;;;;;;6.56;65.46;99725.16;4920707;29;20496;-83
2021/04/29 01:09:09;;;;;;;11.87;8.47;;;;;;;6.44;66.55;99725.38;4920014;29;20043;-82
2021/04/29 01:11:36;;;;;;;14.57;9.27;;;;;;;6.52;66.15;99723.47;4966930;28;20445;-81
2021/04/29 01:14:04;;;;;;;14.27;10.27;;;;;;;6.44;66.46;99718.34;4928194;29;20055;-80
2021/04/29 01:16:32;;;;;;;16.27;9.83;;;;;;;6.44;66.44;99714.88;4951091;28;20781;-82
2021/04/29 01:18:59;;;;;;;13.67;9.70;;;;;;;6.39;66.64;99714.97;4950997;28;20043;-83
2021/04/29 01:21:28;;;;;;;13.47;8.50;;;;;;;6.29;67.01;99710.75;4971412;28;20180;-80
2021/04/29 01:24:23;;;;;;;14.80;9.23;;;;;;;6.31;66.71;99710.75;4932823;29;20039;-80
2021/04/29 01:26:54;;;;;;;12.97;8.60;;;;;;;6.21;66.95;99720.53;4945953;28;20106;-82
2021/04/29 01:29:23;;;;;;;15.03;10.17;;;;;;;6.22;67.24;99706.53;4933960;29;20122;-81
2021/04/29 01:31:51;;;;;;;15.07;10.47;;;;;;;6.16;66.76;99718.00;4951493;29;20032;-80
2021/04/29 01:34:20;;;;;;;14.00;9.90;;;;;;;6.16;67.96;99712.75;4934917;29;20055;-81
2021/04/29 01:36:48;;;;;;;14.57;9.87;;;;;;;6.04;67.23;99706.84;4953028;28;20047;-82
2021/04/29 01:39:15;;;;;;;14.20;10.83;;;;;;;6.01;67.47;99704.28;4959989;28;20047;-82
2021/04/29 01:41:45;;;;;;;14.33;10.23;;;;;;;5.90;67.97;99700.09;4935299;29;20203;-80
2021/04/29 01:44:12;;;;;;;16.23;10.47;;;;;;;6.02;67.63;99693.78;4953989;28;20043;-82
2021/04/29 01:46:39;;;;;;;14.17;10.37;;;;;;;5.85;67.61;99696.66;4934656;29;20039;-80
2021/04/29 01:49:07;;;;;;;15.10;9.83;;;;;;;5.78;68.20;99695.00;4965927;28;20174;-81
2021/04/29 01:51:33;;;;;;;13.37;10.40;;;;;;;5.66;68.45;99690.00;4918956;29;20111;-81
2021/04/29 01:54:00;;;;;;;15.10;10.60;;;;;;;5.65;68.66;99685.66;4926992;29;20440;-82
2021/04/29 01:56:27;;;;;;;15.03;10.40;;;;;;;5.56;69.40;99694.50;4984001;23;20480;-81
2021/04/29 01:58:53;;;;;;;16.17;11.37;;;;;;;5.66;68.85;99690.00;4931355;29;20112;-83
2021/04/29 02:01:19;;;;;;;14.60;11.23;;;;;;;5.74;68.66;99688.09;4963175;28;20119;-79
2021/04/29 02:03:46;;;;;;;17.20;10.80;;;;;;;5.67;68.77;99683.84;4931143;29;20094;-79
2021/04/29 02:06:12;;;;;;;14.90;9.67;;;;;;;5.58;69.44;99684.00;4912887;29;20102;-82
2021/04/29 02:08:38;;;;;;;14.53;10.40;;;;;;;5.57;69.38;99677.91;4948033;28;20039;-83
2021/04/29 02:11:05;;;;;;;16.60;10.83;;;;;;;5.37;70.77;99682.56;4938398;29;20102;-81
2021/04/29 02:13:31;;;;;;;14.33;10.70;;;;;;;5.25;71.78;99698.47;4956612;28;20054;-81
2021/04/29 02:16:03;;;;;;;16.47;11.43;;;;;;;5.44;70.90;99684.22;4946326;28;20165;-79
2021/04/29 02:18:29;;;;;;;17.40;12.10;;;;;;;5.34;71.92;99687.84;4925113;29;20453;-81
2021/04/29 02:20:56;;;;;;;16.87;11.17;;;;;;;5.40;70.75;99674.69;4945068;28;20047;-80
2021/04/29 02:23:24;;;;;;;16.43;10.97;;;;;;;5.41;71.12;99668.56;4961227;28;20453;-80
2021/04/29 02:25:55;;;;;;;15.07;10.70;;;;;;;5.27;71.79;99668.75;4920553;29;20047;-80
2021/04/29 02:28:21;;;;;;;15.03;10.53;;;;;;;5.38;71.88;99671.19;4915537;29;20513;-81
2021/04/29 02:30:48;;;;;;;18.10;11.67;;;;;;;5.29;71.72;99666.09;4930133;29;20043;-81
2021/04/29 02:33:15;;;;;;;16.03;10.53;;;;;;;5.31;71.44;99656.50;4948326;28;20052;-79
2021/04/29 02:35:42;;;;;;;16.70;11.17;;;;;;;5.34;71.87;99649.44;4962145;28;20047;-82
2021/04/29 02:38:08;;;;;;;16.53;11.43;;;;;;;5.17;71.98;99654.06;4946583;28;20075;-79
2021/04/29 02:40:35;;;;;;;16.53;11.37;;;;;;;5.18;72.02;99658.41;4933304;29;20044;-79
2021/04/29 02:43:05;;;;;;;17.67;12.03;;;;;;;5.24;71.77;99653.09;4945950;28;20060;-81
2021/04/29 02:45:31;;;;;;;15.50;11.87;;;;;;;5.16;71.96;99651.47;4925764;29;20176;-78
2021/04/29 02:47:58;;;;;;;15.43;11.57;;;;;;;5.22;72.71;99647.03;4946817;29;20050;-82
2021/04/29 02:50:25;;;;;;;14.83;10.93;;;;;;;5.18;72.23;99641.84;4914585;29;20471;-79
2021/04/29 02:52:52;;;;;;;19.10;10.73;;;;;;;5.14;71.83;99643.66;4937686;29;20031;-80
2021/04/29 02:55:20;;;;;;;15.43;11.30;;;;;;;5.15;72.32;99640.13;4938575;28;20052;-80
2021/04/29 02:57:46;;;;;;;17.77;10.50;;;;;;;5.18;72.21;99637.47;4953131;28;20048;-80
2021/04/29 03:00:16;;;;;;;17.07;12.33;;;;;;;5.25;71.17;99636.47;4962064;28;20138;-79
2021/04/29 03:02:42;;;;;;;21.27;12.57;;;;;;;5.29;72.20;99637.28;4910414;29;20463;-82
2021/04/29 03:05:11;;;;;;;14.13;10.33;;;;;;;5.29;73.02;99632.06;4915099;29;20044;-83
2021/04/29 03:07:38;;;;;;;18.63;11.60;;;;;;;5.23;72.90;99630.41;4915486;29;20046;-79
2021/04/29 03:10:09;;;;;;;15.97;11.03;;;;;;;5.20;73.45;99626.97;4935582;29;20527;-81
2021/04/29 03:12:36;;;;;;;18.33;12.10;;;;;;;5.34;71.74;99630.25;4941748;28;20560;-79
2021/04/29 03:15:03;;;;;;;16.73;10.50;;;;;;;5.27;72.72;99623.38;4937464;29;20726;-83
2021/04/29 03:17:29;;;;;;;16.80;10.93;;;;;;;5.33;72.21;99625.91;4966716;28;20052;-79
2021/04/29 03:19:56;;;;;;;15.67;11.10;;;;;;;5.45;72.22;99623.06;4966921;28;20394;-79
2021/04/29 03:22:22;;;;;;;15.43;11.90;;;;;;;5.48;72.84;99612.56;4934513;29;20580;-80
2021/04/29 03:24:49;;;;;;;15.40;11.03;;;;;;;5.35;74.19;99616.25;4930619;29;20048;-79
2021/04/29 03:27:21;;;;;;;14.70;10.57;;;;;;;5.25;74.36;99617.28;4940420;29;20058;-79
2021/04/29 03:29:47;;;;;;;16.03;10.70;;;;;;;5.43;73.53;99611.75;4952021;28;20628;-80
2021/04/29 03:32:13;;;;;;;15.23;11.33;;;;;;;5.39;73.95;99615.34;4937036;29;20496;-80
2021/04/29 03:34:39;;;;;;;16.30;11.83;;;;;;;5.60;73.57;99614.97;4905374;29;20466;-81
2021/04/29 03:37:05;;;;;;;18.93;12.10;;;;;;;5.63;72.48;99614.94;4940674;29;20044;-80
2021/04/29 03:39:32;;;;;;;17.40;12.20;;;;;;;5.77;72.51;99611.19;4927221;29;20631;-80
2021/04/29 03:41:58;;;;;;;15.87;10.70;;;;;;;5.64;73.75;99603.53;4954417;28;20039;-79
2021/04/29 03:44:25;;;;;;;16.13;11.40;;;;;;;5.62;72.92;99600.06;4934155;29;20533;-81
2021/04/29 03:46:51;;;;;;;15.63;11.47;;;;;;;5.84;71.24;99592.69;4934452;29;20036;-82
2021/04/29 03:49:18;;;;;;;16.13;11.27;;;;;;;5.91;72.96;99598.72;4934471;29;20052;-80
2021/04/29 03:51:44;;;;;;;15.17;10.80;;;;;;;5.86;74.00;99598.78;4935817;29;20047;-80
2021/04/29 03:54:10;;;;;;;14.67;11.03;;;;;;;5.85;74.10;99597.03;4952985;28;20044;-81
2021/04/29 03:56:36;;;;;;;19.67;11.90;;;;;;;5.81;72.31;99605.88;4971693;28;20039;-79
2021/04/29 03:59:02;;;;;;;15.83;12.07;;;;;;;5.82;73.01;99598.88;4956310;28;20098;-81
2021/04/29 04:01:29;;;;;;;19.70;11.97;;;;;;;5.80;72.78;99598.00;4960245;28;20043;-80
2021/04/29 04:03:55;;;;;;;16.47;11.90;;;;;;;5.85;71.96;99591.81;4950549;29;20050;-80
2021/04/29 04:06:22;;;;;;;17.43;11.20;;;;;;;5.90;72.42;99599.59;4965841;28;20110;-86
2021/04/29 04:08:48;;;;;;;16.90;11.00;;;;;;;5.99;71.45;99594.22;4951132;28;20071;-79
2021/04/29 04:11:15;;;;;;;16.07;12.10;;;;;;;6.05;72.48;99594.06;4946752;29;20442;-80
2021/04/29 04:13:41;;;;;;;15.73;11.23;;;;;;;6.09;71.48;99587.03;4920760;29;20051;-80
2021/04/29 04:16:08;;;;;;;18.10;11.60;;;;;;;6.12;71.69;99590.44;4919353;29;20052;-80
2021/04/29 04:18:34;;;;;;;18.07;12.50;;;;;;;6.16;71.69;99586.88;4954608;28;20043;-80
2021/04/29 04:21:01;;;;;;;16.40;11.43;;;;;;;6.09;72.84;99595.75;4936000;29;20048;-80
2021/04/29 04:23:27;;;;;;;17.20;11.60;;;;;;;6.28;70.63;99590.16;4934345;29;20047;-80
2021/04/29 04:25:53;;;;;;;18.30;12.97;;;;;;;6.30;70.10;99583.09;4933109;28;20048;-81
2021/04/29 04:28:19;;;;;;;16.77;12.33;;;;;;;6.45;68.92;99582.78;4948235;29;20051;-80
2021/04/29 04:30:45;;;;;;;21.50;12.70;;;;;;;6.56;69.51;99580.81;4949439;28;20044;-80
2021/04/29 04:33:11;;;;;;;15.40;11.40;;;;;;;6.58;70.40;99581.66;4933716;29;20115;-82
2021/04/29 04:35:39;;;;;;;18.53;11.43;;;;;;;6.48;70.85;99585.38;4955772;28;20047;-80
2021/04/29 04:38:06;;;;;;;17.83;11.90;;;;;;;6.63;69.75;99571.91;4942140;29;20118;-81
2021/04/29 04:40:32;;;;;;;16.17;12.03;;;;;;;6.57;69.70;99593.03;4932132;29;20525;-80
2021/04/29 04:42:58;;;;;;;18.30;12.17;;;;;;;6.61;69.04;99581.56;4960911;28;20094;-80
2021/04/29 04:45:24;;;;;;;18.83;12.57;;;;;;;6.61;68.49;99581.56;4935134;29;20103;-80
2021/04/29 04:47:51;;;;;;;16.73;10.93;;;;;;;6.71;67.91;99571.72;4919191;29;20050;-79
2021/04/29 04:50:19;;;;;;;23.30;13.13;;;;;;;6.68;69.07;99587.56;4931732;29;20056;-82
2021/04/29 04:52:46;;;;;;;22.20;13.43;;;;;;;6.93;67.04;99585.25;4973559;28;20083;-81
2021/04/29 04:55:12;;;;;;;16.40;11.80;;;;;;;6.80;68.17;99595.16;4939228;29;20473;-78
2021/04/29 04:57:38;;;;;;;18.53;12.80;;;;;;;6.83;68.48;99581.13;4947819;29;20493;-78
2021/04/29 05:00:05;;;;;;;54.90;38.70;;;;;;;6.87;67.44;99588.88;4963850;28;20043;-79
2021/04/29 05:02:31;;;;;;;43.00;29.50;;;;;;;6.82;69.12;99601.25;4947529;28;20032;-84
2021/04/29 05:04:58;;;;;;;42.77;27.30;;;;;;;6.82;69.14;99603.88;4949001;29;20040;-83
2021/04/29 05:07:24;;;;;;;20.57;14.17;;;;;;;7.00;66.84;99600.84;4917944;29;20055;-80
2021/04/29 05:09:51;;;;;;;19.97;14.37;;;;;;;7.08;66.84;99603.28;4915981;29;20074;-80
2021/04/29 05:12:17;;;;;;;19.10;15.13;;;;;;;7.01;67.54;99599.06;4913772;29;20399;-81
2021/04/29 05:14:43;;;;;;;19.97;13.23;;;;;;;7.12;68.12;99594.41;4948086;28;20042;-81
2021/04/29 05:17:09;;;;;;;19.70;14.27;;;;;;;7.03;68.80;99592.00;4936724;29;20731;-80
2021/04/29 05:19:38;;;;;;;20.20;12.80;;;;;;;7.03;69.32;99590.25;4940544;28;20091;-81
2021/04/29 05:22:05;;;;;;;17.40;12.30;;;;;;;7.06;70.82;99599.81;4933546;29;20036;-80
2021/04/29 05:24:31;;;;;;;19.73;12.10;;;;;;;7.24;70.86;99586.28;4930364;29;20449;-79
2021/04/29 05:26:57;;;;;;;16.90;12.60;;;;;;;7.54;73.36;99557.50;4946572;28;20048;-83
2021/04/29 05:29:26;;;;;;;18.33;12.80;;;;;;;7.28;76.24;99559.00;4917359;29;20048;-82
2021/04/29 05:31:52;;;;;;;18.17;13.30;;;;;;;7.11;77.31;99557.69;4918183;29;20080;-80
2021/04/29 05:34:18;;;;;;;18.33;13.43;;;;;;;6.89;77.18;99594.06;4963387;28;20675;-82
2021/04/29 05:36:44;;;;;;;19.23;14.00;;;;;;;7.09;76.73;99583.13;4948701;28;20075;-83
2021/04/29 05:39:10;;;;;;;19.03;13.37;;;;;;;7.03;80.32;99589.38;4932187;29;20047;-85
2021/04/29 05:41:36;;;;;;;16.93;12.83;;;;;;;6.96;80.11;99588.66;4932172;29;20047;-81
2021/04/29 05:44:03;;;;;;;19.33;13.73;;;;;;;6.84;78.87;99585.47;4931589;29;20588;-81
2021/04/29 05:46:29;;;;;;;18.30;13.10;;;;;;;6.83;78.54;99579.34;4963842;28;20050;-81
2021/04/29 05:48:55;;;;;;;18.10;12.87;;;;;;;7.02;75.24;99574.53;4929447;29;20478;-81
2021/04/29 05:51:21;;;;;;;19.80;12.97;;;;;;;6.99;77.23;99574.63;4934670;29;20047;-82
2021/04/29 05:53:47;;;;;;;18.23;13.30;;;;;;;7.02;77.65;99572.75;4948859;28;20042;-81
2021/04/29 05:56:16;;;;;;;15.73;12.40;;;;;;;7.14;78.39;99566.34;4933444;29;20505;-82
2021/04/29 05:58:43;;;;;;;17.47;13.10;;;;;;;7.34;80.67;99550.13;4946587;29;20365;-81
2021/04/29 06:01:10;;;;;;;16.80;12.63;;;;;;;7.20;82.36;99537.31;4931215;29;20048;-83
2021/04/29 06:03:37;;;;;;;20.30;13.47;;;;;;;7.31;74.25;99518.66;4936661;29;20039;-82
2021/04/29 06:06:04;;;;;;;18.10;13.50;;;;;;;7.18;77.57;99526.00;4932841;29;20047;-81
2021/04/29 06:08:30;;;;;;;20.47;15.13;;;;;;;7.20;74.76;99518.06;4940544;29;20054;-83
2021/04/29 06:10:56;;;;;;;18.00;12.87;;;;;;;7.10;75.96;99529.72;4947315;29;20449;-83
2021/04/29 06:13:22;;;;;;;21.10;13.63;;;;;;;7.33;72.69;99535.25;4929668;29;20129;-82
2021/04/29 06:15:48;;;;;;;19.50;13.77;;;;;;;7.34;74.79;99534.34;4938184;28;20048;-80
2021/04/29 06:18:17;;;;;;;19.67;13.90;;;;;;;7.24;78.82;99528.47;4941251;29;20051;-82
2021/04/29 06:20:44;;;;;;;20.07;13.20;;;;;;;7.27;81.52;99515.25;4930737;29;20048;-85
2021/04/29 06:23:10;;;;;;;24.90;14.90;;;;;;;7.39;78.49;99513.19;4947388;29;20035;-82
2021/04/29 06:25:36;;;;;;;18.63;14.33;;;;;;;7.14;79.99;99508.56;4915869;29;20138;-82
2021/04/29 06:28:03;;;;;;;18.67;14.77;;;;;;;7.23;78.62;99571.41;4932813;29;20456;-81
2021/04/29 06:30:29;;;;;;;21.07;13.77;;;;;;;7.43;78.32;99609.47;4947592;29;20052;-81
2021/04/29 06:32:55;;;;;;;21.33;14.90;;;;;;;7.47;76.96;99555.91;4964865;28;20066;-81
2021/04/29 06:35:22;;;;;;;22.87;15.57;;;;;;;7.33;79.79;99570.28;4936055;29;20054;-80
2021/04/29 06:37:48;;;;;;;22.83;15.73;;;;;;;7.30;78.94;99569.47;4931514;29;20052;-84
2021/04/29 06:40:14;;;;;;;21.07;15.87;;;;;;;7.43;78.18;99564.78;4931206;29;20075;-84
2021/04/29 06:42:41;;;;;;;19.90;13.93;;;;;;;7.47;78.15;99563.78;4910747;29;20039;-84
2021/04/29 06:45:08;;;;;;;19.83;14.10;;;;;;;7.40;78.82;99572.72;4915790;29;20040;-83
2021/04/29 06:47:34;;;;;;;20.20;14.33;;;;;;;7.43;78.96;99565.66;4915968;28;20071;-82
2021/04/29 06:50:01;;;;;;;19.47;15.07;;;;;;;7.32;79.17;99571.19;4922407;29;20591;-82
2021/04/29 06:52:27;;;;;;;22.13;13.67;;;;;;;7.42;80.56;99568.31;4934765;29;20043;-82
2021/04/29 06:54:53;;;;;;;19.17;14.10;;;;;;;7.57;82.00;99568.81;4952591;28;20062;-84
2021/04/29 06:57:19;;;;;;;18.73;13.83;;;;;;;7.42;83.29;99570.94;4952213;29;20168;-84
2021/04/29 06:59:46;;;;;;;21.03;15.23;;;;;;;7.71;84.45;99554.41;4950653;28;20048;-80
2021/04/29 07:02:12;;;;;;;20.93;14.57;;;;;;;7.71;84.53;99544.75;4919974;28;20047;-82
2021/04/29 07:04:59;;;;;;;21.10;15.63;;;;;;;7.47;86.57;99542.78;4951387;29;20123;-82
2021/04/29 07:07:25;;;;;;;21.70;16.67;;;;;;;7.31;88.33;99577.34;4956737;28;20066;-85
2021/04/29 07:09:51;;;;;;;18.13;15.43;;;;;;;7.46;92.09;99548.94;4924012;29;20051;-86
2021/04/29 07:12:17;;;;;;;22.37;15.37;;;;;;;7.57;90.86;99546.91;4922001;29;20039;-85
2021/04/29 07:14:45;;;;;;;20.43;16.23;;;;;;;7.49;94.75;99533.97;4924237;29;20046;-82
2021/04/29 07:17:11;;;;;;;22.10;15.83;;;;;;;7.39;96.15;99528.97;4970029;28;20039;-84
2021/04/29 07:19:38;;;;;;;23.17;16.23;;;;;;;7.30;97.07;99530.91;4956402;29;20051;-84
2021/04/29 07:22:04;;;;;;;24.03;17.27;;;;;;;7.41;96.04;99532.44;4941455;29;20056;-84
2021/04/29 07:24:32;;;;;;;26.03;17.33;;;;;;;7.46;96.50;99534.03;4941752;29;20071;-88
2021/04/29 07:27:01;;;;;;;24.73;18.40;;;;;;;7.20;97.80;99550.44;4957866;28;20051;-84
2021/04/29 07:29:28;;;;;;;23.83;17.00;;;;;;;7.10;98.50;99558.59;4925605;29;20044;-85
2021/04/29 07:31:55;;;;;;;21.80;16.63;;;;;;;7.09;99.51;99568.25;4932464;29;20050;-84
2021/04/29 07:34:22;;;;;;;25.23;18.60;;;;;;;7.40;99.81;99555.22;4957496;29;20048;-86
2021/04/29 07:36:48;;;;;;;23.97;17.80;;;;;;;7.52;98.41;99535.66;4925781;29;20127;-84
2021/04/29 07:39:14;;;;;;;22.47;17.67;;;;;;;7.36;99.44;99552.69;4955882;28;20067;-84
2021/04/29 07:41:41;;;;;;;27.37;19.60;;;;;;;7.24;100.00;99567.88;4930918;29;20063;-85
2021/04/29 07:44:09;;;;;;;26.40;18.50;;;;;;;7.16;100.00;99577.72;4956378;29;20040;-85
2021/04/29 07:46:35;;;;;;;23.87;17.23;;;;;;;7.22;100.00;99571.41;4940084;29;20057;-84
2021/04/29 07:49:02;;;;;;;27.40;18.50;;;;;;;7.30;100.00;99575.59;4940983;29;20516;-82
2021/04/29 07:51:28;;;;;;;26.37;17.70;;;;;;;7.29;100.00;99573.88;4971917;28;20059;-83
2021/04/29 07:53:54;;;;;;;22.70;18.33;;;;;;;7.29;100.00;99580.88;4958480;29;20056;-82
2021/04/29 07:56:20;;;;;;;25.27;18.80;;;;;;;7.47;100.00;99575.16;5037440;23;20043;-82
2021/04/29 07:58:47;;;;;;;25.77;19.57;;;;;;;7.52;100.00;99578.56;4925931;29;20039;-84
2021/04/29 08:01:13;;;;;;;28.50;19.90;;;;;;;7.46;100.00;99583.09;4952413;28;20102;-81
2021/04/29 08:03:39;;;;;;;26.83;19.00;;;;;;;7.45;100.00;99574.34;4939395;29;20047;-85
2021/04/29 08:06:05;;;;;;;24.03;17.97;;;;;;;7.41;100.00;99577.13;4944406;28;20047;-83
2021/04/29 08:08:31;;;;;;;23.57;18.00;;;;;;;7.34;100.00;99577.25;4939221;29;20047;-84
2021/04/29 08:10:58;;;;;;;29.07;20.50;;;;;;;7.60;100.00;99570.47;4938646;28;20254;-84
2021/04/29 08:13:24;;;;;;;29.93;21.10;;;;;;;7.39;100.00;99576.25;4917878;29;20066;-88
2021/04/29 08:15:50;;;;;;;28.30;21.00;;;;;;;7.63;100.00;99573.00;4940377;28;20087;-87
2021/04/29 08:18:16;;;;;;;31.13;19.27;;;;;;;7.41;100.00;99574.47;4942900;29;20114;-85
2021/04/29 08:20:43;;;;;;;32.90;22.47;;;;;;;7.52;100.00;99569.81;4939015;29;20047;-84
2021/04/29 08:23:09;;;;;;;27.47;19.87;;;;;;;7.50;100.00;99561.13;4938234;29;20315;-86
2021/04/29 08:25:35;;;;;;;28.80;21.50;;;;;;;7.62;100.00;99561.63;4943287;29;20094;-83
2021/04/29 08:28:02;;;;;;;30.57;22.27;;;;;;;7.61;100.00;99559.91;4938238;29;20106;-85
2021/04/29 08:30:29;;;;;;;27.60;18.93;;;;;;;7.61;100.00;99559.06;4932747;29;20047;-87
2021/04/29 08:32:57;;;;;;;30.17;20.87;;;;;;;7.83;100.00;99546.22;4950804;28;20035;-83
2021/04/29 08:35:24;;;;;;;32.57;23.30;;;;;;;7.90;100.00;99558.28;4938843;29;20063;-86
2021/04/29 08:37:51;;;;;;;27.77;20.83;;;;;;;7.79;100.00;99561.19;4954183;28;20052;-84
2021/04/29 08:40:22;;;;;;;30.13;22.40;;;;;;;7.93;100.00;99545.06;4941093;29;20055;-84
2021/04/29 08:42:49;;;;;;;31.30;21.50;;;;;;;7.79;100.00;99541.94;4943676;28;20089;-85
2021/04/29 08:45:16;;;;;;;29.13;22.03;;;;;;;7.88;100.00;99537.28;4930646;29;20563;-87
2021/04/29 08:47:48;;;;;;;35.13;24.27;;;;;;;8.13;100.00;99536.59;4939996;29;20504;-85
2021/04/29 08:50:15;;;;;;;31.57;23.17;;;;;;;8.05;100.00;99525.44;4939449;29;20051;-85
2021/04/29 08:52:41;;;;;;;30.53;22.33;;;;;;;8.01;100.00;99515.91;4936105;29;20047;-87
2021/04/29 08:55:08;;;;;;;28.30;21.67;;;;;;;8.12;100.00;99521.72;4939077;29;20050;-82
2021/04/29 08:57:34;;;;;;;31.50;22.57;;;;;;;8.15;100.00;99521.63;4932902;29;20086;-82
2021/04/29 09:00:03;;;;;;;31.00;21.67;;;;;;;8.22;100.00;99517.91;4921429;29;20067;-81
2021/04/29 09:02:31;;;;;;;29.93;21.73;;;;;;;8.11;100.00;99514.75;4933529;29;20139;-83
2021/04/29 09:05:11;;;;;;;28.00;21.40;;;;;;;8.13;100.00;99526.06;4921197;29;20082;-84
2021/04/29 09:07:37;;;;;;;33.03;22.17;;;;;;;8.27;100.00;99520.44;4920411;29;20098;-84
2021/04/29 09:10:07;;;;;;;31.77;22.37;;;;;;;8.21;100.00;99515.34;4935339;29;20110;-83
2021/04/29 09:12:35;;;;;;;31.93;22.97;;;;;;;8.20;100.00;99522.38;4934963;29;20160;-85
2021/04/29 09:15:01;;;;;;;29.57;22.17;;;;;;;8.12;100.00;99527.84;4951053;29;20047;-84
2021/04/29 09:17:27;;;;;;;32.80;24.50;;;;;;;8.16;100.00;99528.63;4953933;28;20047;-83
2021/04/29 09:19:54;;;;;;;31.47;23.23;;;;;;;8.17;100.00;99531.22;4952040;28;20057;-83
2021/04/29 09:22:22;;;;;;;32.20;25.70;;;;;;;8.27;100.00;99530.94;4936584;29;20051;-83
2021/04/29 09:24:48;;;;;;;32.07;22.10;;;;;;;8.12;100.00;99525.22;4935742;29;20049;-83
2021/04/29 09:27:16;;;;;;;28.17;21.43;;;;;;;8.31;100.00;99511.53;4935310;29;20062;-83
2021/04/29 09:29:56;;;;;;;34.03;23.80;;;;;;;8.50;100.00;99504.00;4928303;29;20734;-84
2021/04/29 09:32:30;;;;;;;36.20;26.17;;;;;;;8.65;100.00;99498.22;4947972;28;20389;-84
2021/04/29 09:34:57;;;;;;;29.98;22.90;;;;;;;8.67;100.00;99496.44;4946294;28;20046;-83
2021/04/29 09:37:37;;;;;;;27.80;22.35;;;;;;;8.76;100.00;99496.16;4951771;28;20047;-83
2021/04/29 09:40:25;;;;;;;33.17;21.42;;;;;;;8.86;100.00;99508.09;4949254;29;20125;-84
2021/04/29 09:42:52;;;;;;;29.95;23.08;;;;;;;8.79;100.00;99508.34;4966810;28;20047;-85
2021/04/29 09:45:28;;;;;;;27.57;21.43;;;;;;;8.91;100.00;99502.66;4934183;29;20456;-84
2021/04/29 09:47:57;;;;;;;30.53;21.87;;;;;;;8.81;100.00;99510.00;4938043;29;20051;-86
2021/04/29 09:50:25;;;;;;;28.97;21.37;;;;;;;8.82;100.00;99506.47;4954442;29;20054;-85
2021/04/29 09:53:02;;;;;;;29.40;21.60;;;;;;;8.70;100.00;99502.44;4943543;29;20043;-86
2021/04/29 09:55:30;;;;;;;28.58;21.15;;;;;;;8.69;100.00;99503.38;4937585;28;20054;-82
2021/04/29 09:58:16;;;;;;;27.40;21.10;;;;;;;8.70;100.00;99501.59;4934177;29;20393;-84
2021/04/29 10:00:47;;;;;;;27.77;21.50;;;;;;;8.74;100.00;99490.03;4959213;28;20043;-86
2021/04/29 10:03:14;;;;;;;30.13;21.95;;;;;;;8.69;100.00;99497.25;4956562;28;20130;-83
2021/04/29 10:05:41;;;;;;;31.60;20.90;;;;;;;8.78;100.00;99493.44;4941853;29;20078;-85
2021/04/29 10:08:10;;;;;;;31.40;21.27;;;;;;;8.80;100.00;99486.34;4920661;29;20544;-85
2021/04/29 10:10:40;;;;;;;27.77;20.13;;;;;;;8.68;100.00;99479.72;4937913;29;20043;-85
2021/04/29 10:13:07;;;;;;;30.25;22.23;;;;;;;8.73;100.00;99475.16;4926235;29;20040;-84
2021/04/29 10:15:38;;;;;;;28.37;21.43;;;;;;;8.76;100.00;99467.19;4950693;28;20055;-84
2021/04/29 10:18:12;;;;;;;28.93;22.70;;;;;;;8.73;100.00;99467.25;4920025;29;20050;-86
2021/04/29 10:20:40;;;;;;;28.95;20.48;;;;;;;8.71;100.00;99469.09;4916420;29;20040;-84
2021/04/29 10:23:10;;;;;;;27.23;19.65;;;;;;;8.68;100.00;99467.41;4918129;29;20050;-84
2021/04/29 10:25:37;;;;;;;27.13;20.00;;;;;;;8.69;100.00;99474.41;4935325;29;20062;-83
2021/04/29 10:28:05;;;;;;;24.47;18.87;;;;;;;8.67;100.00;99467.47;4934873;29;20098;-84
2021/04/29 10:30:38;;;;;;;28.30;19.53;;;;;;;8.59;100.00;99466.84;4950336;28;20050;-85
2021/04/29 10:33:13;;;;;;;23.42;18.77;;;;;;;8.69;100.00;99463.88;4919648;29;20408;-82
2021/04/29 10:35:57;;;;;;;28.17;19.50;;;;;;;8.59;100.00;99462.44;4951163;28;20381;-82
2021/04/29 10:38:34;;;;;;;26.40;18.40;;;;;;;8.71;100.00;99454.13;4950718;29;20043;-83
2021/04/29 10:41:04;;;;;;;26.07;19.70;;;;;;;8.76;100.00;99464.53;4931462;29;20134;-82
2021/04/29 10:43:34;;;;;;;29.42;21.48;;;;;;;8.81;100.00;99459.97;4931069;29;20651;-83
2021/04/29 10:46:04;;;;;;;26.13;18.40;;;;;;;8.82;100.00;99464.31;4946838;29;20094;-83
2021/04/29 10:48:32;;;;;;;23.88;17.75;;;;;;;8.75;100.00;99462.81;4949791;29;20054;-82
2021/04/29 10:51:10;;;;;;;25.73;19.67;;;;;;;8.90;100.00;99474.59;4934125;29;20047;-83
2021/04/29 10:53:37;;;;;;;26.83;19.50;;;;;;;8.89;100.00;99478.16;4912823;29;20046;-83
2021/04/29 10:56:04;;;;;;;28.77;18.67;;;;;;;8.90;100.00;99487.78;4934056;29;20118;-81
2021/04/29 10:58:31;;;;;;;25.60;18.47;;;;;;;8.93;100.00;99480.66;4951701;28;20109;-82
2021/04/29 11:01:06;;;;;;;28.35;19.30;;;;;;;8.99;100.00;99483.06;4935901;29;20051;-82
2021/04/29 11:03:37;;;;;;;30.40;22.30;;;;;;;8.99;100.00;99480.44;4933616;29;20036;-84
2021/04/29 11:06:08;;;;;;;28.63;21.23;;;;;;;9.03;100.00;99482.06;4914829;28;20051;-87
2021/04/29 11:08:37;;;;;;;30.00;21.40;;;;;;;9.03;100.00;99482.06;4931886;29;20062;-85
2021/04/29 11:11:04;;;;;;;30.05;24.05;;;;;;;9.12;100.00;99473.00;4950005;28;20214;-84
2021/04/29 11:13:31;;;;;;;28.33;21.95;;;;;;;9.10;100.00;99479.25;4933849;29;20035;-83
2021/04/29 11:15:58;;;;;;;29.63;21.37;;;;;;;9.15;100.00;99474.66;4933085;29;20554;-86
2021/04/29 11:18:25;;;;;;;31.35;22.95;;;;;;;9.35;100.00;99472.22;4933483;29;20054;-85
2021/04/29 11:21:04;;;;;;;31.90;22.15;;;;;;;9.29;100.00;99478.56;4939671;29;20046;-82
2021/04/29 11:23:46;;;;;;;30.90;22.30;;;;;;;9.40;100.00;99480.81;4934011;29;20055;-82
2021/04/29 11:26:15;;;;;;;31.83;24.05;;;;;;;9.39;100.00;99480.88;4929272;29;20047;-83